Atlantic - Newfoundland: Past 24 Hour Conditions

 

Natashquan Airport

06:00 AM EDT 17 April 2014
This table is a summary of hourly weather conditions for the past 24 hours.
Date / Time
(EDT)
Wind(knots) Conditions Visibility(km) Pressure(kPa) Air tempC) Relative humidity(%) Dew pointC) Wind Chill
17 April 2014
6:00 WNW 9 Sunny 16 103.6 -8 59 -15 -15
5:00 WNW 10 Clear 16 103.4 -9 62 -15 -17
4:00 WNW 14 Clear 16 103.4 -8 57 -16 -17
3:00 WNW 13 gust 20 Clear 16 103.3 -8 55 -16 -16
2:00 WNW 15 gust 22 Clear 16 103.1 -8 57 -15 -16
1:00 WNW 20 gust 28 Clear 16 102.9 -7 54 -15 -16
0:00 WNW 21 gust 28 Clear 16 102.7 -5 55 -13 -14
16 April 2014
23:00 WNW 20 gust 29 Clear 16 102.5 -4 56 -11 -12
22:00 W 23 gust 33 Mostly Cloudy 16 102.4 -2 60 -9 -11
21:00 W 22 gust 34 Mostly Cloudy 16 102.1 -2 65 -8 -10
20:00 W 21 gust 31 Mainly Clear 16 102.0 -2 71 -6 -10
19:00 W 22 gust 33 Mainly Sunny 16 101.7 -2 74 -6 -10
18:00 W 28 gust 39 Partly Cloudy 16 101.4 -1 75 -5 -10
17:00 W 30 gust 41 N/A N/A 101.2 -1 76 -4 -10
16:00 N/A N/A N/A N/A N/A N/A N/A *
15:00 N/A N/A N/A N/A N/A N/A N/A *
14:00 N/A N/A N/A N/A N/A N/A N/A *
13:00 W 25 gust 32 Light Snow 1 100.3 -2 94 -3 -11
12:00 W 20 gust 32 Light Snow 2 100.2 -1 95 -2 -9
11:00 W 25 gust 37 Light Snow 16 100.1 -1 94 -1 -9
10:00 W 19 gust 29 Light Rain 13 100.0 0 96 -1 *
9:00 W 15 Light Rain 5 100.0 1 100 1 *
8:00 W 10 Light Rain 2 99.9 2 100 2 *
7:00 SSW 7 Light Rain 1 99.9 3 100 3 *
6:00 S 15 gust 23 Light Rain 0.4 99.8 5 100 5 *
 
Map of Atlantic - Newfoundland marine weather areas Southwestern Grand Banks - 44138 Banquereau - 44139 Tail of the Bank - 44140 Nickerson Bank - 44251 Northeast Burgeo Bank - 44255 Blanc-Sablon Airport Cap Whittle Chevery Natashquan Airport Heath Point Miscou Island Grand Étang Ingonish Beach North Mountain St.Paul Island J.A. Douglas McCurdy Sydney Airport Charlottetown Airport East Point North Cape Argentia Bonavista Burgeo Cape Race Corner Brook Daniel's Harbour Englee Ferolle Point La Scie Port aux Basques Rocky Harbour Sagona Island St. Anthony Airport St. John's Int'l Airport St. Lawrence Stephenville Airport Twillingate Winterland Wreckhouse Cartwright Airport Mary's Harbour Grates Cove Pool's Island Marticot Island Long Pond Îles de la Madeleine Airport
Legend: buoyBuoy land stationLand Station